Time;durP1;ratioP1;P1;durP2;ratioP2;P2;SDS_P1;SDS_P2;PMS_P1;PMS_P2;Temp;Humidity;BMP_temperature;BMP_pressure;BME280_temperature;BME280_humidity;BME280_pressure;Samples;Min_cycle;Max_cycle;Signal;HPM_P1;HPM_P2
2023/08/08 00:01:30;;;;;;;;;;;19.10;87.20;;;;;;5096717;28;19915;-74
2023/08/08 00:03:56;;;;;;;;;;;19.10;87.20;;;;;;5096878;28;19931;-68
2023/08/08 00:06:21;;;;;;;;;;;19.10;87.20;;;;;;5096909;28;19912;-74
2023/08/08 00:08:47;;;;;;;;;;;19.10;87.20;;;;;;5096827;28;19908;-72
2023/08/08 00:11:12;;;;;;;;;;;19.10;87.20;;;;;;5096487;28;19908;-71
2023/08/08 00:13:38;;;;;;;;;;;19.10;87.20;;;;;;5095400;28;19956;-72
2023/08/08 00:16:03;;;;;;;;;;;19.10;87.20;;;;;;5096630;28;19912;-73
2023/08/08 00:18:29;;;;;;;;;;;19.10;87.20;;;;;;5096617;28;19916;-72
2023/08/08 00:20:54;;;;;;;;;;;19.10;87.20;;;;;;5096308;28;19908;-73
2023/08/08 00:23:20;;;;;;;;;;;19.10;87.20;;;;;;5096559;28;19915;-73
2023/08/08 00:25:49;;;;;;;;;;;19.10;87.20;;;;;;5096487;28;19908;-74
2023/08/08 00:28:15;;;;;;;;;;;19.10;87.70;;;;;;5096376;28;20341;-71
2023/08/08 00:30:41;;;;;;;;;;;19.10;87.20;;;;;;5096371;28;19908;-71
2023/08/08 00:33:06;;;;;;;;;;;19.10;87.10;;;;;;5096027;28;20030;-73
2023/08/08 00:35:32;;;;;;;;;;;19.10;87.20;;;;;;5095018;28;19916;-72
2023/08/08 00:37:57;;;;;;;;;;;19.10;87.20;;;;;;5096032;28;20426;-71
2023/08/08 00:40:22;;;;;;;;;;;19.10;87.20;;;;;;5096282;28;19912;-71
2023/08/08 00:42:48;;;;;;;;;;;19.10;87.10;;;;;;5096109;28;19948;-73
2023/08/08 00:45:13;;;;;;;;;;;19.10;87.20;;;;;;5096062;28;20416;-74
2023/08/08 00:47:39;;;;;;;;;;;19.10;87.20;;;;;;5096110;28;19912;-71
2023/08/08 00:50:05;;;;;;;;;;;19.10;87.20;;;;;;5095785;28;19912;-72
2023/08/08 00:52:30;;;;;;;;;;;19.10;87.20;;;;;;5096007;28;19908;-72
2023/08/08 00:54:56;;;;;;;;;;;19.10;87.20;;;;;;5095582;28;20279;-72
2023/08/08 00:57:22;;;;;;;;;;;19.10;87.20;;;;;;5096132;28;19916;-72
2023/08/08 00:59:47;;;;;;;;;;;19.10;87.20;;;;;;5094604;28;19908;-72
2023/08/08 01:02:13;;;;;;;;;;;19.10;87.20;;;;;;5095845;28;20381;-72
2023/08/08 01:04:39;;;;;;;;;;;19.10;87.20;;;;;;5095519;28;20442;-72
2023/08/08 01:07:25;;;;;;;;;;;19.10;87.20;;;;;;5096055;28;19909;-72
2023/08/08 01:09:53;;;;;;;;;;;19.10;87.20;;;;;;5095800;28;20323;-72
2023/08/08 01:12:18;;;;;;;;;;;19.10;87.20;;;;;;5095321;28;20259;-72
2023/08/08 01:14:45;;;;;;;;;;;19.10;87.20;;;;;;5095194;28;19927;-72
2023/08/08 01:17:11;;;;;;;;;;;19.10;87.20;;;;;;5095264;28;19919;-72
2023/08/08 01:19:37;;;;;;;;;;;19.10;87.20;;;;;;5095217;28;19908;-72
2023/08/08 01:22:04;;;;;;;;;;;19.00;87.10;;;;;;5095761;28;19916;-72
2023/08/08 01:24:32;;;;;;;;;;;19.10;87.20;;;;;;5095402;28;19912;-72
2023/08/08 01:26:58;;;;;;;;;;;19.10;87.20;;;;;;5095182;28;19908;-67
2023/08/08 01:29:23;;;;;;;;;;;19.10;87.20;;;;;;5095061;28;19930;-72
2023/08/08 01:31:49;;;;;;;;;;;19.10;87.20;;;;;;5094976;28;19916;-72
2023/08/08 01:34:14;;;;;;;;;;;19.10;87.20;;;;;;5094862;28;19919;-72
2023/08/08 01:36:55;;;;;;;;;;;19.10;87.10;;;;;;5095145;28;20244;-72
2023/08/08 01:39:30;;;;;;;;;;;19.10;87.20;;;;;;5094870;28;19915;-72
2023/08/08 01:41:58;;;;;;;;;;;19.10;87.20;;;;;;5094618;28;19912;-72
2023/08/08 01:44:25;;;;;;;;;;;19.10;87.10;;;;;;5094967;28;19915;-72
2023/08/08 01:46:50;;;;;;;;;;;19.10;87.10;;;;;;5093775;28;19908;-72
2023/08/08 01:49:16;;;;;;;;;;;19.10;87.10;;;;;;5094911;28;19915;-72
2023/08/08 01:51:41;;;;;;;;;;;19.10;87.10;;;;;;5095224;28;19919;-72
2023/08/08 01:54:07;;;;;;;;;;;19.10;87.10;;;;;;5094534;28;19923;-72
2023/08/08 01:56:32;;;;;;;;;;;19.10;87.10;;;;;;5094554;28;20355;-72
2023/08/08 01:58:58;;;;;;;;;;;19.10;87.20;;;;;;5094789;28;19987;-72
2023/08/08 02:01:23;;;;;;;;;;;19.10;87.10;;;;;;5094722;28;20381;-72
2023/08/08 02:03:49;;;;;;;;;;;19.00;87.10;;;;;;5094451;28;19915;-72
2023/08/08 02:06:15;;;;;;;;;;;19.10;87.10;;;;;;5094772;28;20371;-72
2023/08/08 02:08:40;;;;;;;;;;;19.10;87.10;;;;;;5094633;28;19908;-72
2023/08/08 02:11:06;;;;;;;;;;;19.10;87.10;;;;;;5094640;28;20313;-72
2023/08/08 02:13:31;;;;;;;;;;;19.10;87.10;;;;;;5094601;28;19960;-71
2023/08/08 02:15:57;;;;;;;;;;;19.00;87.00;;;;;;5094169;28;19919;-72
2023/08/08 02:18:22;;;;;;;;;;;19.10;87.10;;;;;;5094813;28;19912;-72
2023/08/08 02:20:48;;;;;;;;;;;19.10;87.10;;;;;;5094443;28;19908;-72
2023/08/08 02:23:13;;;;;;;;;;;19.00;87.00;;;;;;5094413;28;19908;-72
2023/08/08 02:25:38;;;;;;;;;;;19.00;87.00;;;;;;5094364;28;19950;-72
2023/08/08 02:28:04;;;;;;;;;;;19.10;87.10;;;;;;5094095;28;20049;-72
2023/08/08 02:30:30;;;;;;;;;;;19.10;87.00;;;;;;5094266;28;20339;-71
2023/08/08 02:32:55;;;;;;;;;;;19.00;87.00;;;;;;5094400;28;19908;-72
2023/08/08 02:35:21;;;;;;;;;;;19.00;87.00;;;;;;5093960;28;19926;-72
2023/08/08 02:37:46;;;;;;;;;;;19.00;87.00;;;;;;5094541;28;19912;-72
2023/08/08 02:40:12;;;;;;;;;;;19.00;87.00;;;;;;5094151;28;20006;-72
2023/08/08 02:42:37;;;;;;;;;;;19.00;87.10;;;;;;5094160;28;20274;-72
2023/08/08 02:45:03;;;;;;;;;;;19.00;87.00;;;;;;5093971;28;19928;-72
2023/08/08 02:47:28;;;;;;;;;;;19.00;87.00;;;;;;5094107;28;19915;-72
2023/08/08 02:49:54;;;;;;;;;;;19.00;87.00;;;;;;5093822;28;19912;-72
2023/08/08 02:52:19;;;;;;;;;;;19.00;87.00;;;;;;5095027;28;20362;-72
2023/08/08 02:54:45;;;;;;;;;;;19.00;87.00;;;;;;5098240;28;19963;-72
2023/08/08 02:57:11;;;;;;;;;;;19.00;87.00;;;;;;5097932;28;19912;-72
2023/08/08 02:59:37;;;;;;;;;;;19.00;87.00;;;;;;5098381;28;19915;-72
2023/08/08 03:02:03;;;;;;;;;;;19.00;87.00;;;;;;5098051;28;20263;-72
2023/08/08 03:04:29;;;;;;;;;;;19.00;87.00;;;;;;5098016;28;19908;-72
2023/08/08 03:06:54;;;;;;;;;;;19.00;86.90;;;;;;5097844;28;19908;-72
2023/08/08 03:09:20;;;;;;;;;;;19.00;86.90;;;;;;5097687;28;19908;-72
2023/08/08 03:11:45;;;;;;;;;;;19.00;87.00;;;;;;5097965;28;19909;-72
2023/08/08 03:14:11;;;;;;;;;;;19.00;87.00;;;;;;5098120;28;20278;-72
2023/08/08 03:16:36;;;;;;;;;;;19.00;87.00;;;;;;5097868;28;19912;-72
2023/08/08 03:19:02;;;;;;;;;;;19.00;87.00;;;;;;5097561;28;19912;-72
2023/08/08 03:21:28;;;;;;;;;;;19.00;87.00;;;;;;5097791;28;20370;-72
2023/08/08 03:23:53;;;;;;;;;;;19.00;87.00;;;;;;5097764;28;19921;-72
2023/08/08 03:26:19;;;;;;;;;;;19.00;86.90;;;;;;5097625;28;19912;-73
2023/08/08 03:28:44;;;;;;;;;;;19.00;87.00;;;;;;5097360;28;20336;-72
2023/08/08 03:31:10;;;;;;;;;;;19.00;87.00;;;;;;5097443;28;19919;-72
2023/08/08 03:33:35;;;;;;;;;;;19.00;87.00;;;;;;5097193;28;20282;-72
2023/08/08 03:36:01;;;;;;;;;;;19.00;87.00;;;;;;5095808;28;19958;-72
2023/08/08 03:38:26;;;;;;;;;;;19.00;87.10;;;;;;5097282;28;20370;-72
2023/08/08 03:40:52;;;;;;;;;;;19.00;87.00;;;;;;5097423;28;19954;-72
2023/08/08 03:43:17;;;;;;;;;;;19.00;87.00;;;;;;5097403;28;19916;-72
2023/08/08 03:45:44;;;;;;;;;;;19.00;87.00;;;;;;5096464;28;19920;-72
2023/08/08 03:48:09;;;;;;;;;;;19.00;87.00;;;;;;5095717;28;20321;-72
2023/08/08 03:50:35;;;;;;;;;;;19.00;87.00;;;;;;5095761;28;19912;-72
2023/08/08 03:53:00;;;;;;;;;;;18.90;87.00;;;;;;5095976;28;19908;-68
2023/08/08 03:55:26;;;;;;;;;;;19.00;87.10;;;;;;5095974;28;19912;-72
2023/08/08 03:57:51;;;;;;;;;;;19.00;87.00;;;;;;5094546;28;19969;-72
2023/08/08 04:00:17;;;;;;;;;;;18.90;87.00;;;;;;5095752;28;19958;-72
2023/08/08 04:02:42;;;;;;;;;;;18.90;87.00;;;;;;5095088;28;19960;-72
2023/08/08 04:05:08;;;;;;;;;;;19.00;87.10;;;;;;5095746;28;20411;-72
2023/08/08 04:07:34;;;;;;;;;;;18.90;87.00;;;;;;5095284;28;19907;-70
2023/08/08 04:09:59;;;;;;;;;;;18.90;87.00;;;;;;5095609;28;19908;-72
2023/08/08 04:12:25;;;;;;;;;;;18.90;87.00;;;;;;5095299;28;20372;-72
2023/08/08 04:14:50;;;;;;;;;;;18.90;87.00;;;;;;5095383;28;19935;-71
2023/08/08 04:17:16;;;;;;;;;;;19.00;87.10;;;;;;5095196;28;19919;-72
2023/08/08 04:19:41;;;;;;;;;;;18.90;87.00;;;;;;5095329;28;19918;-72
2023/08/08 04:22:07;;;;;;;;;;;18.90;87.00;;;;;;5095371;28;19999;-72
2023/08/08 04:24:32;;;;;;;;;;;18.90;87.00;;;;;;5095367;28;19908;-71
2023/08/08 04:26:58;;;;;;;;;;;18.90;87.00;;;;;;5095062;28;19999;-72
2023/08/08 04:29:23;;;;;;;;;;;18.90;87.00;;;;;;5094837;28;19908;-72
2023/08/08 04:31:48;;;;;;;;;;;18.90;87.10;;;;;;5095371;28;19961;-72
2023/08/08 04:34:14;;;;;;;;;;;18.90;87.00;;;;;;5094909;28;20362;-72
2023/08/08 04:36:39;;;;;;;;;;;18.90;87.00;;;;;;5094916;28;19912;-72
2023/08/08 04:39:05;;;;;;;;;;;18.90;87.50;;;;;;5095148;28;19912;-72
2023/08/08 04:41:30;;;;;;;;;;;18.90;87.10;;;;;;5095137;28;19915;-72
2023/08/08 04:43:56;;;;;;;;;;;18.90;87.10;;;;;;5094689;28;19915;-72
2023/08/08 04:46:21;;;;;;;;;;;18.90;87.10;;;;;;5033001;28;1763788;-72
2023/08/08 04:48:47;;;;;;;;;;;18.90;87.20;;;;;;5095665;28;20371;-72
2023/08/08 04:51:12;;;;;;;;;;;18.90;87.00;;;;;;5095946;28;19952;-72
2023/08/08 04:53:38;;;;;;;;;;;18.90;87.10;;;;;;5095640;28;19914;-71
2023/08/08 04:56:03;;;;;;;;;;;18.90;87.10;;;;;;5095825;28;20025;-72
2023/08/08 04:58:29;;;;;;;;;;;18.90;87.10;;;;;;5095880;28;19916;-72
2023/08/08 05:00:55;;;;;;;;;;;18.90;87.10;;;;;;5095778;28;19908;-72
2023/08/08 05:03:20;;;;;;;;;;;18.90;87.10;;;;;;5095613;28;20255;-72
2023/08/08 05:05:46;;;;;;;;;;;18.90;87.10;;;;;;5095624;28;19908;-72
2023/08/08 05:08:11;;;;;;;;;;;18.90;87.10;;;;;;5095285;28;20045;-71
2023/08/08 05:10:37;;;;;;;;;;;18.80;87.10;;;;;;5095696;28;19977;-72
2023/08/08 05:13:02;;;;;;;;;;;18.80;87.10;;;;;;5095410;28;19908;-71
2023/08/08 05:15:28;;;;;;;;;;;18.90;87.10;;;;;;5094338;28;19919;-72
2023/08/08 05:17:55;;;;;;;;;;;18.80;87.10;;;;;;5095404;28;19958;-72
2023/08/08 05:20:21;;;;;;;;;;;18.80;87.10;;;;;;5095227;28;19908;-71
2023/08/08 05:22:46;;;;;;;;;;;18.80;87.10;;;;;;5095746;28;20305;-72
2023/08/08 05:25:12;;;;;;;;;;;18.90;87.20;;;;;;5094892;28;19912;-72
2023/08/08 05:27:37;;;;;;;;;;;18.80;87.20;;;;;;5095206;28;19908;-71
2023/08/08 05:30:04;;;;;;;;;;;18.80;87.20;;;;;;5095503;28;19909;-71
2023/08/08 05:32:30;;;;;;;;;;;18.80;87.20;;;;;;5095060;28;19953;-72
2023/08/08 05:34:57;;;;;;;;;;;18.80;87.20;;;;;;5094830;28;19920;-72
2023/08/08 05:37:22;;;;;;;;;;;18.80;87.10;;;;;;5094913;28;19920;-72
2023/08/08 05:39:47;;;;;;;;;;;18.80;87.10;;;;;;5094600;28;20048;-72
2023/08/08 05:42:13;;;;;;;;;;;18.80;87.20;;;;;;5093589;28;20013;-72
2023/08/08 05:44:38;;;;;;;;;;;18.80;87.10;;;;;;5094517;28;19973;-72
2023/08/08 05:47:04;;;;;;;;;;;18.80;87.10;;;;;;5094417;28;19908;-72
2023/08/08 05:49:29;;;;;;;;;;;18.80;87.10;;;;;;5094356;28;19951;-72
2023/08/08 05:51:55;;;;;;;;;;;18.80;87.10;;;;;;5094862;28;20021;-72
2023/08/08 05:54:20;;;;;;;;;;;18.80;87.20;;;;;;5094239;28;20367;-71
2023/08/08 05:56:46;;;;;;;;;;;18.80;87.10;;;;;;5094486;28;20007;-72
2023/08/08 05:59:12;;;;;;;;;;;18.80;87.20;;;;;;5094172;28;20286;-72
2023/08/08 06:01:37;;;;;;;;;;;18.80;87.20;;;;;;5094135;28;19954;-72
2023/08/08 06:04:03;;;;;;;;;;;18.80;87.20;;;;;;5094474;28;20275;-72
2023/08/08 06:06:28;;;;;;;;;;;18.80;87.20;;;;;;5094476;28;20270;-73
2023/08/08 06:08:54;;;;;;;;;;;18.80;87.20;;;;;;5094664;28;19908;-72
2023/08/08 06:11:21;;;;;;;;;;;18.80;87.20;;;;;;5094112;28;19958;-74
2023/08/08 06:13:46;;;;;;;;;;;18.80;87.20;;;;;;5094239;28;19908;-73
2023/08/08 06:16:12;;;;;;;;;;;18.80;87.20;;;;;;5093658;28;19943;-73
2023/08/08 06:18:37;;;;;;;;;;;18.80;87.30;;;;;;5094221;28;20248;-72
2023/08/08 06:21:03;;;;;;;;;;;18.80;87.20;;;;;;5093833;28;19908;-72
2023/08/08 06:23:28;;;;;;;;;;;18.80;87.20;;;;;;5094497;28;19915;-73
2023/08/08 06:25:54;;;;;;;;;;;18.80;87.20;;;;;;5093719;28;19908;-74
2023/08/08 06:28:19;;;;;;;;;;;18.80;87.20;;;;;;5094200;28;20309;-71
2023/08/08 06:30:45;;;;;;;;;;;18.80;87.20;;;;;;5094191;28;19947;-73
2023/08/08 06:33:10;;;;;;;;;;;18.80;87.20;;;;;;5094057;28;20251;-74
2023/08/08 06:35:36;;;;;;;;;;;18.80;87.30;;;;;;5094108;28;20278;-73
2023/08/08 06:38:02;;;;;;;;;;;18.80;87.30;;;;;;5092657;28;19920;-74
2023/08/08 06:40:28;;;;;;;;;;;18.80;87.30;;;;;;5094245;28;19991;-74
2023/08/08 06:42:54;;;;;;;;;;;18.80;87.30;;;;;;5093584;28;19930;-75
2023/08/08 06:45:19;;;;;;;;;;;18.80;87.30;;;;;;5093482;28;19920;-74
2023/08/08 06:47:45;;;;;;;;;;;18.80;87.30;;;;;;5093932;28;19915;-75
2023/08/08 06:50:10;;;;;;;;;;;18.80;87.30;;;;;;5093641;28;19908;-75
2023/08/08 06:52:36;;;;;;;;;;;18.80;87.20;;;;;;5093739;28;19951;-74
2023/08/08 06:55:01;;;;;;;;;;;18.80;87.30;;;;;;5093637;28;19916;-75
2023/08/08 06:57:27;;;;;;;;;;;18.80;87.30;;;;;;5093753;28;19913;-74
2023/08/08 06:59:52;;;;;;;;;;;18.80;87.30;;;;;;5093940;28;20014;-74
2023/08/08 07:02:19;;;;;;;;;;;18.80;87.30;;;;;;5093775;28;19909;-74
2023/08/08 07:04:45;;;;;;;;;;;18.80;87.30;;;;;;5093558;28;19908;-74
2023/08/08 07:07:10;;;;;;;;;;;18.80;87.30;;;;;;5093691;28;19912;-74
2023/08/08 07:09:37;;;;;;;;;;;18.80;87.30;;;;;;5093610;28;20376;-74
2023/08/08 07:12:03;;;;;;;;;;;18.80;87.30;;;;;;5093564;28;20355;-74
2023/08/08 07:14:28;;;;;;;;;;;18.80;87.30;;;;;;5093665;28;19912;-74
2023/08/08 07:16:54;;;;;;;;;;;18.80;87.30;;;;;;5093507;28;20374;-74
2023/08/08 07:19:19;;;;;;;;;;;18.80;87.30;;;;;;5093470;28;19969;-74
2023/08/08 07:21:45;;;;;;;;;;;18.80;87.30;;;;;;5093259;28;19909;-74
2023/08/08 07:24:10;;;;;;;;;;;18.80;87.30;;;;;;5093628;28;20271;-74
2023/08/08 07:26:36;;;;;;;;;;;18.80;87.30;;;;;;5093403;28;20011;-73
2023/08/08 07:29:01;;;;;;;;;;;18.80;87.30;;;;;;5093776;28;19913;-74
2023/08/08 07:31:27;;;;;;;;;;;18.80;87.30;;;;;;5093408;28;20265;-74
2023/08/08 07:33:52;;;;;;;;;;;18.80;87.30;;;;;;5093285;28;19999;-74
2023/08/08 07:36:17;;;;;;;;;;;18.80;87.30;;;;;;5093608;28;20290;-74
2023/08/08 07:38:43;;;;;;;;;;;18.80;87.30;;;;;;5094999;28;19908;-74
2023/08/08 07:41:09;;;;;;;;;;;18.80;87.30;;;;;;5097156;28;19954;-75
2023/08/08 07:43:35;;;;;;;;;;;18.80;87.30;;;;;;5097093;28;19908;-72
2023/08/08 07:46:00;;;;;;;;;;;18.80;87.30;;;;;;5097257;28;20434;-74
2023/08/08 07:48:26;;;;;;;;;;;18.80;87.30;;;;;;5096917;28;19955;-74
2023/08/08 07:50:51;;;;;;;;;;;18.80;87.30;;;;;;5096993;28;20006;-74
2023/08/08 07:53:17;;;;;;;;;;;18.80;87.30;;;;;;5096852;28;20363;-74
2023/08/08 07:55:42;;;;;;;;;;;18.80;87.30;;;;;;5096535;28;19912;-74
2023/08/08 07:58:08;;;;;;;;;;;18.70;87.20;;;;;;5096908;28;19912;-74
2023/08/08 08:00:34;;;;;;;;;;;18.80;87.30;;;;;;5096444;28;19908;-74
2023/08/08 08:02:59;;;;;;;;;;;18.70;87.20;;;;;;5096335;28;20061;-74
2023/08/08 08:05:25;;;;;;;;;;;18.70;87.20;;;;;;5096850;28;19908;-74
2023/08/08 08:07:50;;;;;;;;;;;18.70;87.20;;;;;;5096667;28;19908;-74
2023/08/08 08:10:16;;;;;;;;;;;18.80;87.30;;;;;;5096793;28;19915;-74
2023/08/08 08:12:42;;;;;;;;;;;18.70;87.30;;;;;;5096645;28;19912;-74
2023/08/08 08:15:08;;;;;;;;;;;18.80;87.30;;;;;;5096186;28;19916;-74
2023/08/08 08:17:34;;;;;;;;;;;18.80;87.30;;;;;;5096461;28;19919;-72
2023/08/08 08:19:59;;;;;;;;;;;18.80;87.30;;;;;;5096318;28;19908;-72
2023/08/08 08:22:25;;;;;;;;;;;18.70;87.20;;;;;;5096312;28;19908;-72
2023/08/08 08:24:50;;;;;;;;;;;18.80;87.30;;;;;;5096131;28;19908;-72
2023/08/08 08:27:15;;;;;;;;;;;18.80;87.30;;;;;;5096104;28;19908;-72
2023/08/08 08:29:41;;;;;;;;;;;18.80;87.30;;;;;;5096250;28;20077;-73
2023/08/08 08:32:06;;;;;;;;;;;18.70;87.20;;;;;;5094881;28;20279;-71
2023/08/08 08:34:32;;;;;;;;;;;18.70;87.10;;;;;;5095787;28;19922;-72
2023/08/08 08:36:57;;;;;;;;;;;18.70;87.10;;;;;;5095695;28;19912;-75
2023/08/08 08:39:23;;;;;;;;;;;18.80;87.20;;;;;;5096052;28;19909;-72
2023/08/08 08:41:49;;;;;;;;;;;18.80;87.30;;;;;;5094746;28;20445;-72
2023/08/08 08:44:21;;;;;;;;;;;18.70;87.30;;;;;;5095669;28;19908;-70
2023/08/08 08:46:48;;;;;;;;;;;18.70;87.30;;;;;;5095959;28;19916;-71
2023/08/08 08:49:13;;;;;;;;;;;18.80;87.40;;;;;;5095325;28;20347;-70
2023/08/08 08:51:39;;;;;;;;;;;18.70;87.40;;;;;;5094993;28;19958;-69
2023/08/08 08:54:05;;;;;;;;;;;18.70;87.40;;;;;;5095401;28;20396;-70
2023/08/08 08:56:31;;;;;;;;;;;18.70;87.30;;;;;;5095788;28;19919;-74
2023/08/08 08:58:57;;;;;;;;;;;18.80;87.40;;;;;;5095414;28;19908;-72
2023/08/08 09:01:23;;;;;;;;;;;18.70;87.30;;;;;;5095537;28;19915;-72
2023/08/08 09:03:49;;;;;;;;;;;18.70;87.30;;;;;;5095275;28;19908;-70
2023/08/08 09:06:16;;;;;;;;;;;18.70;87.30;;;;;;5095080;28;19908;-72
2023/08/08 09:08:41;;;;;;;;;;;18.70;87.30;;;;;;5095572;28;19913;-73
2023/08/08 09:11:07;;;;;;;;;;;18.70;87.30;;;;;;5095601;28;19912;-67
2023/08/08 09:13:39;;;;;;;;;;;18.70;87.30;;;;;;5095422;28;19915;-70
2023/08/08 09:16:08;;;;;;;;;;;18.70;87.30;;;;;;5095245;28;20342;-71
2023/08/08 09:18:34;;;;;;;;;;;18.70;87.30;;;;;;5095304;28;19912;-71
2023/08/08 09:21:00;;;;;;;;;;;18.80;87.30;;;;;;5094787;28;19999;-71
2023/08/08 09:23:25;;;;;;;;;;;18.70;87.80;;;;;;5095206;28;19916;-71
2023/08/08 09:25:51;;;;;;;;;;;18.70;87.30;;;;;;5095146;28;19931;-71
2023/08/08 09:28:17;;;;;;;;;;;18.70;87.30;;;;;;5095148;28;19925;-70
2023/08/08 09:30:42;;;;;;;;;;;18.70;87.30;;;;;;5094976;28;19912;-71
2023/08/08 09:33:08;;;;;;;;;;;18.70;87.30;;;;;;5094999;28;19959;-69
2023/08/08 09:35:34;;;;;;;;;;;18.70;87.30;;;;;;5094798;28;20308;-72
2023/08/08 09:37:59;;;;;;;;;;;18.70;87.30;;;;;;5094921;28;20033;-69
2023/08/08 09:40:25;;;;;;;;;;;18.80;87.30;;;;;;5094906;28;19908;-71
2023/08/08 09:42:51;;;;;;;;;;;18.70;87.30;;;;;;5094942;28;19908;-71
2023/08/08 09:45:17;;;;;;;;;;;18.70;87.30;;;;;;5094877;28;20355;-71
2023/08/08 09:47:42;;;;;;;;;;;18.70;87.30;;;;;;5094635;28;19908;-70
2023/08/08 09:50:08;;;;;;;;;;;18.80;87.40;;;;;;5094789;28;19912;-68
2023/08/08 09:52:34;;;;;;;;;;;18.80;87.40;;;;;;5094637;28;20393;-72
2023/08/08 09:54:59;;;;;;;;;;;18.70;87.30;;;;;;5093322;28;19919;-71
2023/08/08 09:57:25;;;;;;;;;;;18.70;87.30;;;;;;5094274;28;19912;-71
2023/08/08 09:59:51;;;;;;;;;;;18.70;87.30;;;;;;5094317;28;19912;-71
2023/08/08 10:02:17;;;;;;;;;;;18.80;87.40;;;;;;5093789;28;19915;-71
2023/08/08 10:04:44;;;;;;;;;;;18.70;87.30;;;;;;5094093;28;19933;-70
2023/08/08 10:07:09;;;;;;;;;;;18.70;87.30;;;;;;5094307;28;19912;-69
2023/08/08 10:09:34;;;;;;;;;;;18.70;87.30;;;;;;5094476;28;19908;-71
2023/08/08 10:12:00;;;;;;;;;;;18.70;87.40;;;;;;5094529;28;20282;-71
2023/08/08 10:14:30;;;;;;;;;;;18.80;87.40;;;;;;5094274;28;20006;-72
2023/08/08 10:16:55;;;;;;;;;;;18.80;87.40;;;;;;5093934;28;19912;-72
2023/08/08 10:19:22;;;;;;;;;;;18.80;87.40;;;;;;5093732;28;20393;-72
2023/08/08 10:21:48;;;;;;;;;;;18.80;87.40;;;;;;5094240;28;19927;-72
2023/08/08 10:24:13;;;;;;;;;;;18.80;87.50;;;;;;5094008;28;20294;-72
2023/08/08 10:26:57;;;;;;;;;;;18.80;87.40;;;;;;5094463;28;19908;-69
2023/08/08 10:29:24;;;;;;;;;;;18.80;87.40;;;;;;5094175;28;19912;-72
2023/08/08 10:31:53;;;;;;;;;;;18.70;87.40;;;;;;5094297;28;20000;-71
2023/08/08 10:34:26;;;;;;;;;;;18.80;87.40;;;;;;5093925;28;19908;-71
2023/08/08 10:36:52;;;;;;;;;;;18.70;87.30;;;;;;5093596;28;19916;-72
2023/08/08 10:39:18;;;;;;;;;;;18.70;87.40;;;;;;5094024;28;19915;-72
2023/08/08 10:41:44;;;;;;;;;;;18.80;87.40;;;;;;5094042;28;19931;-71
2023/08/08 10:44:10;;;;;;;;;;;18.80;87.40;;;;;;5094134;28;19908;-71
2023/08/08 10:46:39;;;;;;;;;;;18.80;87.40;;;;;;5093873;28;20317;-72
2023/08/08 10:49:05;;;;;;;;;;;18.80;87.40;;;;;;5093908;28;19908;-71
2023/08/08 10:51:33;;;;;;;;;;;18.80;87.40;;;;;;5093801;28;19909;-71
2023/08/08 10:54:02;;;;;;;;;;;18.80;87.40;;;;;;5093625;28;19908;-71
2023/08/08 10:56:30;;;;;;;;;;;18.70;87.40;;;;;;5093623;28;19951;-72
2023/08/08 10:58:55;;;;;;;;;;;18.80;87.40;;;;;;5093989;28;19908;-71
2023/08/08 11:01:24;;;;;;;;;;;18.80;87.40;;;;;;5093853;28;19959;-72
2023/08/08 11:03:50;;;;;;;;;;;18.80;87.40;;;;;;5093454;28;19908;-72
2023/08/08 11:06:15;;;;;;;;;;;18.70;87.30;;;;;;5093673;28;20347;-71
2023/08/08 11:08:41;;;;;;;;;;;18.80;87.40;;;;;;5093522;28;19995;-71
2023/08/08 11:11:06;;;;;;;;;;;18.80;87.40;;;;;;5093262;28;19912;-72
2023/08/08 11:13:32;;;;;;;;;;;18.70;87.30;;;;;;5094645;28;19912;-72
2023/08/08 11:15:58;;;;;;;;;;;18.80;87.40;;;;;;5097262;28;19967;-72
2023/08/08 11:18:25;;;;;;;;;;;18.80;87.40;;;;;;5097463;28;19919;-72
2023/08/08 11:20:50;;;;;;;;;;;18.80;87.40;;;;;;5097582;28;19962;-72
2023/08/08 11:23:16;;;;;;;;;;;18.70;87.40;;;;;;5097448;28;20301;-72
2023/08/08 11:25:43;;;;;;;;;;;18.80;87.40;;;;;;5097134;28;19935;-72
2023/08/08 11:28:08;;;;;;;;;;;18.80;87.40;;;;;;5097465;28;20339;-72
2023/08/08 11:30:37;;;;;;;;;;;18.80;87.40;;;;;;5096068;28;19915;-72
2023/08/08 11:33:03;;;;;;;;;;;18.80;87.30;;;;;;5097308;28;19912;-72
2023/08/08 11:35:29;;;;;;;;;;;18.80;87.40;;;;;;5096576;28;19912;-73
2023/08/08 11:37:55;;;;;;;;;;;18.80;87.30;;;;;;5097224;28;20382;-72
2023/08/08 11:40:22;;;;;;;;;;;18.80;87.30;;;;;;5096988;28;19908;-72
2023/08/08 11:42:50;;;;;;;;;;;18.80;87.30;;;;;;5097108;28;19931;-72
2023/08/08 11:45:15;;;;;;;;;;;18.80;87.30;;;;;;5097086;28;19927;-72
2023/08/08 11:47:41;;;;;;;;;;;18.80;87.30;;;;;;5097517;28;19908;-71
2023/08/08 11:50:07;;;;;;;;;;;18.80;87.30;;;;;;5096983;28;20008;-72
2023/08/08 11:52:35;;;;;;;;;;;18.80;87.30;;;;;;5096882;28;19915;-72
2023/08/08 11:55:01;;;;;;;;;;;18.80;87.30;;;;;;5096930;28;19981;-72
2023/08/08 11:57:31;;;;;;;;;;;18.80;87.30;;;;;;5096596;28;19966;-72
2023/08/08 11:59:57;;;;;;;;;;;18.80;87.80;;;;;;5095695;28;19929;-72
2023/08/08 12:02:23;;;;;;;;;;;18.80;87.30;;;;;;5096800;28;20271;-73
2023/08/08 12:04:48;;;;;;;;;;;18.80;87.30;;;;;;5096530;28;19915;-72
2023/08/08 12:07:14;;;;;;;;;;;18.80;87.30;;;;;;5096738;28;20341;-72
2023/08/08 12:09:40;;;;;;;;;;;18.80;87.30;;;;;;5096214;28;19908;-72
2023/08/08 12:12:05;;;;;;;;;;;18.80;87.30;;;;;;5096946;28;19909;-72
2023/08/08 12:14:36;;;;;;;;;;;18.80;87.30;;;;;;5095165;28;19912;-72
2023/08/08 12:17:02;;;;;;;;;;;18.80;87.30;;;;;;5096435;28;19916;-72
2023/08/08 12:19:28;;;;;;;;;;;18.80;87.30;;;;;;5096210;28;19962;-72
2023/08/08 12:21:54;;;;;;;;;;;18.80;87.30;;;;;;5096272;28;19960;-72
2023/08/08 12:24:19;;;;;;;;;;;18.80;87.20;;;;;;5096387;28;19994;-72
2023/08/08 12:26:45;;;;;;;;;;;18.80;87.20;;;;;;5096195;28;19930;-72
2023/08/08 12:29:11;;;;;;;;;;;18.80;87.20;;;;;;5096378;28;19908;-72
2023/08/08 12:31:37;;;;;;;;;;;18.80;87.20;;;;;;5096282;28;19911;-72
2023/08/08 12:34:03;;;;;;;;;;;18.80;87.20;;;;;;5096263;28;19961;-72
2023/08/08 12:36:28;;;;;;;;;;;18.80;87.10;;;;;;5095899;28;19977;-71
2023/08/08 12:38:54;;;;;;;;;;;18.80;87.10;;;;;;5095591;28;19908;-72
2023/08/08 12:41:19;;;;;;;;;;;18.80;87.10;;;;;;5096009;28;19914;-72
2023/08/08 12:43:45;;;;;;;;;;;18.80;87.10;;;;;;5095649;28;19999;-72
2023/08/08 12:46:10;;;;;;;;;;;18.80;87.10;;;;;;5095836;28;20011;-72
2023/08/08 12:48:36;;;;;;;;;;;18.80;87.10;;;;;;5095775;28;19914;-72
2023/08/08 12:51:01;;;;;;;;;;;18.80;87.10;;;;;;5095738;28;19915;-71
2023/08/08 12:53:26;;;;;;;;;;;18.80;87.10;;;;;;5095298;28;19908;-71
2023/08/08 12:55:52;;;;;;;;;;;18.80;87.10;;;;;;5095668;28;19967;-72
2023/08/08 12:58:17;;;;;;;;;;;18.80;87.10;;;;;;5095070;28;19912;-71
2023/08/08 13:00:43;;;;;;;;;;;18.80;87.10;;;;;;5095088;28;19908;-72
2023/08/08 13:03:10;;;;;;;;;;;18.80;87.10;;;;;;5095487;28;19908;-71
2023/08/08 13:05:35;;;;;;;;;;;18.70;87.10;;;;;;5095175;28;20435;-72
2023/08/08 13:08:01;;;;;;;;;;;18.80;87.10;;;;;;5095420;28;19908;-72
2023/08/08 13:10:26;;;;;;;;;;;18.80;87.10;;;;;;5094042;28;19907;-71
2023/08/08 13:12:52;;;;;;;;;;;18.80;87.10;;;;;;5095236;28;20274;-72
2023/08/08 13:15:17;;;;;;;;;;;18.80;87.10;;;;;;5095147;28;19918;-72
2023/08/08 13:17:43;;;;;;;;;;;18.80;87.10;;;;;;5095379;28;20362;-72
2023/08/08 13:20:08;;;;;;;;;;;18.80;87.60;;;;;;5095005;28;19915;-72
2023/08/08 13:22:34;;;;;;;;;;;18.80;87.10;;;;;;5095099;28;19908;-72
2023/08/08 13:24:59;;;;;;;;;;;18.80;87.10;;;;;;5095226;28;19955;-72
2023/08/08 13:27:25;;;;;;;;;;;18.80;87.10;;;;;;5095195;28;20354;-72
2023/08/08 13:29:50;;;;;;;;;;;18.80;87.10;;;;;;5095090;28;19908;-72
2023/08/08 13:32:16;;;;;;;;;;;18.80;87.10;;;;;;5094714;28;19962;-72
2023/08/08 13:34:41;;;;;;;;;;;18.80;87.10;;;;;;5095062;28;19923;-72
2023/08/08 13:37:07;;;;;;;;;;;18.80;87.10;;;;;;5094392;28;20363;-72
2023/08/08 13:39:32;;;;;;;;;;;18.80;87.10;;;;;;5094643;28;19961;-72
2023/08/08 13:41:58;;;;;;;;;;;18.80;87.10;;;;;;5093968;28;20316;-72
2023/08/08 13:44:23;;;;;;;;;;;18.80;87.10;;;;;;5094430;28;20355;-72
2023/08/08 13:46:49;;;;;;;;;;;18.80;87.00;;;;;;5094780;28;19930;-72
2023/08/08 13:49:15;;;;;;;;;;;18.80;87.10;;;;;;5094477;28;19908;-72
2023/08/08 13:51:41;;;;;;;;;;;18.80;87.00;;;;;;5095115;28;19915;-72
2023/08/08 13:54:06;;;;;;;;;;;18.80;87.10;;;;;;5094710;28;20360;-72
2023/08/08 13:56:32;;;;;;;;;;;18.80;87.10;;;;;;5094257;28;19927;-72
2023/08/08 13:58:57;;;;;;;;;;;18.80;87.10;;;;;;5094576;28;19972;-72
2023/08/08 14:01:22;;;;;;;;;;;18.70;87.00;;;;;;5094214;28;19912;-71
2023/08/08 14:03:48;;;;;;;;;;;18.80;87.00;;;;;;5094383;28;20004;-72
2023/08/08 14:06:14;;;;;;;;;;;18.80;87.00;;;;;;5094482;28;19988;-71
2023/08/08 14:08:39;;;;;;;;;;;18.80;87.00;;;;;;5093920;28;20060;-72